createdAt,value
2022-12-09T00:01:18.294Z,99669.28
2022-12-09T00:03:47.194Z,99667.25
2022-12-09T00:06:20.820Z,99665.06
2022-12-09T00:08:49.192Z,99660.97
2022-12-09T00:11:18.097Z,99668.25
2022-12-09T00:13:53.335Z,99667.19
2022-12-09T00:16:22.584Z,99665.47
2022-12-09T00:18:50.745Z,99671.91
2022-12-09T00:21:26.268Z,99665.34
2022-12-09T00:23:56.169Z,99658.72
2022-12-09T00:26:25.495Z,99660.06
2022-12-09T00:28:54.999Z,99671.16
2022-12-09T00:31:32.549Z,99678.59
2022-12-09T00:34:04.956Z,99685.41
2022-12-09T00:36:33.517Z,99687.91
2022-12-09T00:39:01.401Z,99675.97
2022-12-09T00:41:30.055Z,99678.59
2022-12-09T00:43:58.484Z,99674.63
2022-12-09T00:46:26.215Z,99678.50
2022-12-09T00:48:53.871Z,99681.00
2022-12-09T00:51:24.367Z,99673.44
2022-12-09T00:53:56.016Z,99669.63
2022-12-09T00:56:29.055Z,99667.06
2022-12-09T00:58:58.100Z,99663.41
2022-12-09T01:01:27.780Z,99652.94
2022-12-09T01:03:59.159Z,99659.13
2022-12-09T01:06:28.085Z,99652.13
2022-12-09T01:08:55.898Z,99656.25
2022-12-09T01:11:29.004Z,99653.34
2022-12-09T01:14:02.392Z,99656.41
2022-12-09T01:16:33.642Z,99652.03
2022-12-09T01:19:08.393Z,99664.50
2022-12-09T01:21:36.903Z,99660.13
2022-12-09T01:24:11.463Z,99653.38
2022-12-09T01:26:39.454Z,99664.91
2022-12-09T01:29:07.322Z,99675.03
2022-12-09T01:31:35.941Z,99674.63
2022-12-09T01:34:03.954Z,99672.81
2022-12-09T01:36:32.193Z,99670.53
2022-12-09T01:39:00.901Z,99670.16
2022-12-09T01:41:28.859Z,99657.34
2022-12-09T01:44:25.371Z,99661.78
2022-12-09T01:47:01.704Z,99665.06
2022-12-09T01:49:46.992Z,99660.13
2022-12-09T01:52:22.627Z,99658.28
2022-12-09T01:54:52.909Z,99662.28
2022-12-09T01:57:21.042Z,99661.50
2022-12-09T01:59:49.967Z,99657.16
2022-12-09T02:02:19.906Z,99656.28
2022-12-09T02:04:50.162Z,99651.19
2022-12-09T02:07:19.991Z,99657.25
2022-12-09T02:09:53.334Z,99655.63
2022-12-09T02:12:43.437Z,99659.91
2022-12-09T02:15:21.974Z,99652.00
2022-12-09T02:18:01.813Z,99634.94
2022-12-09T02:20:37.330Z,99648.03
2022-12-09T02:23:28.020Z,99644.59
2022-12-09T02:26:55.817Z,99635.50
2022-12-09T02:29:32.082Z,99628.91
2022-12-09T02:32:49.929Z,99629.38
2022-12-09T02:35:56.962Z,99647.13
2022-12-09T02:38:33.401Z,99648.66
2022-12-09T02:41:07.822Z,99660.09
2022-12-09T02:43:50.037Z,99647.50
2022-12-09T02:46:23.556Z,99661.53
2022-12-09T02:48:57.262Z,99655.84
2022-12-09T02:51:30.851Z,99655.91
2022-12-09T02:54:06.039Z,99657.97
2022-12-09T02:56:36.314Z,99661.47
2022-12-09T02:59:04.442Z,99660.38
2022-12-09T03:02:02.321Z,99662.66
2022-12-09T03:04:32.420Z,99656.25
2022-12-09T03:07:18.182Z,99655.69
2022-12-09T03:09:48.633Z,99665.00
2022-12-09T03:12:21.293Z,99671.22
2022-12-09T03:14:53.856Z,99661.25
2022-12-09T03:17:37.148Z,99648.53
2022-12-09T03:20:14.827Z,99646.50
2022-12-09T03:22:45.906Z,99656.88
2022-12-09T03:25:28.513Z,99643.50
2022-12-09T03:28:04.194Z,99646.69
2022-12-09T03:30:35.679Z,99665.69
2022-12-09T03:33:05.199Z,99670.81
2022-12-09T03:35:52.373Z,99666.94
2022-12-09T03:38:23.448Z,99685.75
2022-12-09T03:41:04.677Z,99678.78
2022-12-09T03:43:38.877Z,99676.06
2022-12-09T03:46:06.534Z,99670.75
2022-12-09T03:48:34.577Z,99662.50
2022-12-09T03:51:14.425Z,99684.13
2022-12-09T03:54:02.805Z,99682.66
2022-12-09T03:56:40.624Z,99686.53
2022-12-09T03:59:14.827Z,99690.31
2022-12-09T04:01:45.208Z,99681.28
2022-12-09T04:04:15.105Z,99677.53
2022-12-09T04:06:43.019Z,99676.25
2022-12-09T04:09:13.194Z,99678.34
2022-12-09T04:11:41.213Z,99674.66
2022-12-09T04:14:15.102Z,99682.88
2022-12-09T04:16:46.424Z,99692.16
2022-12-09T04:19:14.921Z,99684.69
2022-12-09T04:21:43.347Z,99682.16
2022-12-09T04:24:10.957Z,99679.72
2022-12-09T04:26:38.815Z,99670.44
2022-12-09T04:29:06.944Z,99675.06
2022-12-09T04:31:35.056Z,99667.19
2022-12-09T04:34:08.968Z,99666.63
2022-12-09T04:36:38.613Z,99665.78
2022-12-09T04:39:07.452Z,99671.78
2022-12-09T04:41:35.407Z,99677.59
2022-12-09T04:44:04.243Z,99667.91
2022-12-09T04:46:31.906Z,99662.66
2022-12-09T04:48:59.385Z,99663.25
2022-12-09T04:51:27.024Z,99664.72
2022-12-09T04:53:54.961Z,99658.06
2022-12-09T04:56:23.238Z,99658.31
2022-12-09T04:58:51.844Z,99664.72
2022-12-09T05:01:29.799Z,99662.13
2022-12-09T05:03:58.665Z,99668.69
2022-12-09T05:06:28.220Z,99683.81
2022-12-09T05:08:56.055Z,99669.69
2022-12-09T05:11:24.428Z,99673.94
2022-12-09T05:13:54.649Z,99675.19
2022-12-09T05:16:22.757Z,99677.41
2022-12-09T05:18:50.838Z,99685.56
2022-12-09T05:21:21.117Z,99681.09
2022-12-09T05:23:49.625Z,99687.78
2022-12-09T05:26:21.349Z,99688.03
2022-12-09T05:28:51.144Z,99683.97
2022-12-09T05:31:22.228Z,99694.34
2022-12-09T05:33:52.422Z,99696.38
2022-12-09T05:36:29.940Z,99679.53
2022-12-09T05:38:58.496Z,99683.19
2022-12-09T05:41:26.295Z,99689.13
2022-12-09T05:43:54.747Z,99695.81
2022-12-09T05:46:22.926Z,99688.44
2022-12-09T05:48:51.057Z,99686.81
2022-12-09T05:51:27.962Z,99689.69
2022-12-09T05:54:00.283Z,99681.06
2022-12-09T05:56:28.399Z,99686.28
2022-12-09T05:58:56.733Z,99688.94
2022-12-09T06:01:26.496Z,99694.34
2022-12-09T06:03:55.466Z,99682.25
2022-12-09T06:06:31.384Z,99688.13
2022-12-09T06:09:01.943Z,99682.34
2022-12-09T06:11:32.359Z,99691.53
2022-12-09T06:14:00.211Z,99696.97
2022-12-09T06:16:28.179Z,99701.41
2022-12-09T06:18:56.296Z,99703.13
2022-12-09T06:21:24.538Z,99698.69
2022-12-09T06:23:53.538Z,99703.31
2022-12-09T06:26:30.209Z,99714.69
2022-12-09T06:28:59.800Z,99712.78
2022-12-09T06:31:29.438Z,99720.03
2022-12-09T06:33:58.872Z,99722.09
2022-12-09T06:36:30.265Z,99726.94
2022-12-09T06:39:05.846Z,99728.94
2022-12-09T06:41:37.286Z,99723.69
2022-12-09T06:44:05.080Z,99734.34
2022-12-09T06:46:34.487Z,99735.78
2022-12-09T06:49:02.629Z,99745.66
2022-12-09T06:51:30.733Z,99739.22
2022-12-09T06:53:58.687Z,99732.97
2022-12-09T06:56:26.938Z,99723.59
2022-12-09T06:58:54.845Z,99714.91
2022-12-09T07:01:26.014Z,99707.34
2022-12-09T07:03:57.105Z,99721.88
2022-12-09T07:06:36.597Z,99728.28
2022-12-09T07:09:20.874Z,99728.16
2022-12-09T07:11:49.830Z,99733.03
2022-12-09T07:14:19.403Z,99739.81
2022-12-09T07:16:47.799Z,99743.31
2022-12-09T07:19:21.286Z,99745.34
2022-12-09T07:21:50.895Z,99746.13
2022-12-09T07:24:20.305Z,99748.41
2022-12-09T07:26:48.707Z,99746.56
2022-12-09T07:29:17.151Z,99742.09
2022-12-09T07:31:45.462Z,99739.94
2022-12-09T07:34:13.538Z,99737.09
2022-12-09T07:36:41.511Z,99733.81
2022-12-09T07:39:15.480Z,99732.25
2022-12-09T07:41:43.985Z,99729.16
2022-12-09T07:44:12.782Z,99734.00
2022-12-09T07:46:40.868Z,99742.53
2022-12-09T07:49:10.109Z,99749.69
2022-12-09T07:51:38.234Z,99748.53
2022-12-09T07:54:06.177Z,99749.59
2022-12-09T07:56:34.407Z,99747.94
2022-12-09T07:59:02.216Z,99746.91
2022-12-09T08:01:31.698Z,99758.06
2022-12-09T08:03:59.644Z,99744.84
2022-12-09T08:06:30.349Z,99736.41
2022-12-09T08:09:04.200Z,99743.09
2022-12-09T08:11:34.086Z,99743.66
2022-12-09T08:14:11.043Z,99750.72
2022-12-09T08:16:42.181Z,99754.91
2022-12-09T08:19:10.486Z,99749.31
2022-12-09T08:21:39.174Z,99756.19
2022-12-09T08:24:08.074Z,99747.16
2022-12-09T08:26:39.292Z,99748.72
2022-12-09T08:29:13.595Z,99746.09
2022-12-09T08:31:43.951Z,99742.31
2022-12-09T08:34:12.445Z,99744.63
2022-12-09T08:36:41.939Z,99744.38
2022-12-09T08:39:11.796Z,99753.53
2022-12-09T08:41:40.444Z,99754.88
2022-12-09T08:44:16.240Z,99742.88
2022-12-09T08:46:51.382Z,99734.41
2022-12-09T08:49:23.307Z,99729.16
2022-12-09T08:51:53.568Z,99724.47
2022-12-09T08:54:34.685Z,99718.31
2022-12-09T08:57:03.813Z,99717.81
2022-12-09T08:59:31.750Z,99721.06
2022-12-09T09:02:02.970Z,99721.03
2022-12-09T09:04:37.796Z,99709.81
2022-12-09T09:09:55.724Z,99719.47
2022-12-09T09:12:30.644Z,99721.88
2022-12-09T09:14:59.240Z,99717.16
2022-12-09T09:17:27.404Z,99714.16
2022-12-09T09:19:55.352Z,99709.16
2022-12-09T09:22:23.558Z,99686.81
2022-12-09T09:24:54.225Z,99676.34
2022-12-09T09:27:23.032Z,99662.78
2022-12-09T09:29:50.930Z,99653.03
2022-12-09T09:32:18.829Z,99654.66
2022-12-09T09:34:48.660Z,99663.97
2022-12-09T09:37:19.611Z,99678.59
2022-12-09T09:39:47.265Z,99673.47
2022-12-09T09:42:23.480Z,99676.63
2022-12-09T09:44:54.262Z,99677.13
2022-12-09T09:47:51.176Z,99677.59
2022-12-09T09:50:44.588Z,99670.03
2022-12-09T09:53:26.825Z,99661.34
2022-12-09T09:56:10.645Z,99661.59
2022-12-09T09:58:50.332Z,99658.69
2022-12-09T10:01:20.951Z,99655.31
2022-12-09T10:04:19.602Z,99657.25
2022-12-09T10:07:16.057Z,99655.63
2022-12-09T10:10:34.471Z,99657.78
2022-12-09T10:13:34.158Z,99635.72
2022-12-09T10:16:25.158Z,99633.31
2022-12-09T10:19:12.056Z,99628.00
2022-12-09T10:21:45.249Z,99621.50
2022-12-09T10:24:26.916Z,99623.53
2022-12-09T10:27:09.707Z,99633.38
2022-12-09T10:30:13.102Z,99629.31
2022-12-09T10:32:44.329Z,99625.97
2022-12-09T10:35:20.179Z,99625.84
2022-12-09T10:37:52.650Z,99615.25
2022-12-09T10:41:08.011Z,99606.28
2022-12-09T10:43:41.055Z,99593.72
2022-12-09T10:46:22.405Z,99584.50
2022-12-09T10:48:56.284Z,99575.03
2022-12-09T10:51:34.804Z,99571.81
2022-12-09T10:54:15.319Z,99553.94
2022-12-09T10:57:05.874Z,99558.25
2022-12-09T10:59:36.031Z,99558.72
2022-12-09T11:02:09.948Z,99556.56
2022-12-09T11:04:41.736Z,99553.91
2022-12-09T11:07:16.594Z,99560.69
2022-12-09T11:09:49.357Z,99558.38
2022-12-09T11:12:34.771Z,99565.13
2022-12-09T11:15:43.804Z,99541.81
2022-12-09T11:18:32.951Z,99543.94
2022-12-09T11:21:04.913Z,99534.63
2022-12-09T11:23:36.680Z,99523.34
2022-12-09T11:26:23.104Z,99515.50
2022-12-09T11:29:04.597Z,99525.03
2022-12-09T11:31:38.282Z,99533.16
2022-12-09T11:34:26.316Z,99533.47
2022-12-09T11:36:58.130Z,99517.28
2022-12-09T11:39:33.681Z,99535.88
2022-12-09T11:42:17.577Z,99546.63
2022-12-09T11:45:27.621Z,99532.03
2022-12-09T11:48:29.797Z,99525.97
2022-12-09T11:50:58.684Z,99520.63
2022-12-09T11:53:32.698Z,99515.25
2022-12-09T11:56:17.277Z,99505.56
2022-12-09T11:59:12.405Z,99513.56
2022-12-09T12:02:18.136Z,99505.84
2022-12-09T12:04:58.536Z,99499.88
2022-12-09T12:08:04.555Z,99506.63
2022-12-09T12:10:44.760Z,99502.28
2022-12-09T12:13:40.496Z,99500.31
2022-12-09T12:16:44.674Z,99483.38
2022-12-09T12:19:39.681Z,99489.25
2022-12-09T12:22:41.020Z,99490.31
2022-12-09T12:25:47.562Z,99491.69
2022-12-09T12:28:30.906Z,99508.63
2022-12-09T12:31:26.479Z,99508.69
2022-12-09T12:34:45.841Z,99506.84
2022-12-09T12:46:27.242Z,99491.44
2022-12-09T12:55:43.078Z,99487.06
2022-12-09T12:59:03.136Z,99475.97
2022-12-09T13:01:41.283Z,99473.25
2022-12-09T13:04:48.475Z,99483.44
2022-12-09T13:07:45.969Z,99501.44
2022-12-09T13:10:29.035Z,99481.75
2022-12-09T13:12:58.679Z,99494.53
2022-12-09T13:15:41.929Z,99499.31
2022-12-09T13:18:40.446Z,99523.13
2022-12-09T13:21:08.477Z,99524.75
2022-12-09T13:24:18.014Z,99506.78
2022-12-09T13:26:48.939Z,99486.53
2022-12-09T13:29:34.957Z,99487.22
2022-12-09T13:32:42.967Z,99492.50
2022-12-09T13:35:38.059Z,99503.84
2022-12-09T13:38:40.607Z,99497.63
2022-12-09T13:41:57.226Z,99485.16
2022-12-09T13:44:36.605Z,99475.19
2022-12-09T13:47:28.594Z,99479.75
2022-12-09T13:50:04.904Z,99485.47
2022-12-09T13:53:21.535Z,99486.72
2022-12-09T13:56:21.239Z,99492.13
2022-12-09T13:59:40.177Z,99496.13
2022-12-09T14:02:42.843Z,99485.41
2022-12-09T14:05:23.646Z,99483.72
2022-12-09T14:08:07.386Z,99483.22
2022-12-09T14:10:44.595Z,99489.06
2022-12-09T14:13:35.718Z,99477.63
2022-12-09T14:16:30.479Z,99476.88
2022-12-09T14:19:34.144Z,99482.53
2022-12-09T14:22:23.620Z,99484.50
2022-12-09T14:25:27.617Z,99482.16
2022-12-09T14:28:12.863Z,99469.75
2022-12-09T14:31:04.834Z,99472.44
2022-12-09T14:33:41.236Z,99478.72
2022-12-09T14:36:14.619Z,99472.97
2022-12-09T14:39:07.831Z,99471.19
2022-12-09T14:41:40.624Z,99475.97
2022-12-09T14:44:37.094Z,99463.00
2022-12-09T14:47:34.265Z,99461.63
2022-12-09T14:50:22.198Z,99473.88
2022-12-09T14:53:03.754Z,99477.41
2022-12-09T14:55:40.248Z,99477.44
2022-12-09T14:58:13.679Z,99473.34
2022-12-09T15:00:41.774Z,99476.94
2022-12-09T15:03:33.261Z,99475.50
2022-12-09T15:06:19.254Z,99478.53
2022-12-09T15:08:48.084Z,99459.44
2022-12-09T15:11:19.253Z,99463.34
2022-12-09T15:13:50.783Z,99459.88
2022-12-09T15:16:24.814Z,99446.38
2022-12-09T15:18:53.935Z,99444.72
2022-12-09T15:21:33.921Z,99443.13
2022-12-09T15:24:01.749Z,99445.44
2022-12-09T15:26:34.187Z,99436.41
2022-12-09T15:29:05.625Z,99442.59
2022-12-09T15:31:35.010Z,99448.59
2022-12-09T15:34:20.529Z,99455.13
2022-12-09T15:37:02.710Z,99469.91
2022-12-09T15:39:52.199Z,99469.97
2022-12-09T15:42:27.412Z,99472.44
2022-12-09T15:45:10.850Z,99458.06
2022-12-09T15:48:02.824Z,99451.41
2022-12-09T15:50:44.918Z,99443.72
2022-12-09T15:53:34.486Z,99432.94
2022-12-09T15:56:33.027Z,99429.25
2022-12-09T15:59:20.713Z,99427.66
2022-12-09T16:01:58.101Z,99442.50
2022-12-09T16:04:34.785Z,99438.28
2022-12-09T16:07:07.351Z,99440.97
2022-12-09T16:09:35.297Z,99447.63
2022-12-09T16:12:26.527Z,99444.84
2022-12-09T16:14:54.918Z,99435.72
2022-12-09T16:17:27.872Z,99428.44
2022-12-09T16:19:55.850Z,99429.69
2022-12-09T16:22:32.110Z,99421.19
2022-12-09T16:25:23.761Z,99433.25
2022-12-09T16:28:04.566Z,99445.78
2022-12-09T16:30:43.458Z,99438.56
2022-12-09T16:33:37.946Z,99431.84
2022-12-09T16:36:16.169Z,99420.59
2022-12-09T16:39:33.291Z,99416.03
2022-12-09T16:42:03.800Z,99427.13
2022-12-09T16:44:39.496Z,99417.03
2022-12-09T16:47:30.785Z,99410.66
2022-12-09T16:50:02.983Z,99412.81
2022-12-09T16:52:35.952Z,99410.81
2022-12-09T16:55:38.588Z,99408.50
2022-12-09T16:58:08.582Z,99418.75
2022-12-09T17:00:43.909Z,99411.28
2022-12-09T17:03:39.376Z,99405.50
2022-12-09T17:06:11.925Z,99398.50
2022-12-09T17:08:40.496Z,99408.19
2022-12-09T17:11:11.144Z,99413.13
2022-12-09T17:13:43.114Z,99413.78
2022-12-09T17:16:13.123Z,99413.84
2022-12-09T17:19:10.465Z,99418.38
2022-12-09T17:24:30.603Z,99419.53
2022-12-09T17:27:10.055Z,99417.00
2022-12-09T17:29:40.104Z,99410.13
2022-12-09T17:32:10.162Z,99422.97
2022-12-09T17:34:39.938Z,99421.38
2022-12-09T17:37:11.936Z,99407.91
2022-12-09T17:39:41.131Z,99406.97
2022-12-09T17:42:09.873Z,99402.31
2022-12-09T17:44:39.139Z,99389.31
2022-12-09T17:47:09.721Z,99391.63
2022-12-09T17:49:44.553Z,99395.19
2022-12-09T17:52:14.986Z,99403.03
2022-12-09T17:54:45.931Z,99408.28
2022-12-09T17:57:16.027Z,99409.19
2022-12-09T17:59:50.662Z,99396.97
2022-12-09T18:02:20.758Z,99387.22
2022-12-09T18:04:58.626Z,99390.00
2022-12-09T18:07:30.035Z,99396.59
2022-12-09T18:10:00.884Z,99385.56
2022-12-09T18:12:30.408Z,99381.63
2022-12-09T18:15:01.638Z,99376.94
2022-12-09T18:17:36.727Z,99373.25
2022-12-09T18:20:34.224Z,99373.38
2022-12-09T18:23:27.451Z,99385.81
2022-12-09T18:25:58.311Z,99387.03
2022-12-09T18:28:28.820Z,99384.09
2022-12-09T18:31:02.965Z,99380.88
2022-12-09T18:33:35.484Z,99376.41
2022-12-09T18:36:18.140Z,99373.31
2022-12-09T18:38:49.757Z,99382.22
2022-12-09T18:41:27.048Z,99384.75
2022-12-09T18:43:56.962Z,99381.16
2022-12-09T18:46:33.892Z,99390.94
2022-12-09T18:49:18.406Z,99374.69
2022-12-09T18:51:57.760Z,99386.66
2022-12-09T18:54:32.335Z,99382.84
2022-12-09T18:57:03.629Z,99379.88
2022-12-09T18:59:32.979Z,99386.03
2022-12-09T19:02:07.122Z,99381.22
2022-12-09T19:04:37.370Z,99387.38
2022-12-09T19:07:10.183Z,99368.31
2022-12-09T19:09:45.491Z,99371.28
2022-12-09T19:12:45.815Z,99379.06
2022-12-09T19:15:11.750Z,99392.88
2022-12-09T19:17:45.766Z,99388.78
2022-12-09T19:20:38.312Z,99393.63
2022-12-09T19:23:11.260Z,99382.06
2022-12-09T19:25:49.490Z,99381.66
2022-12-09T19:28:20.627Z,99363.19
2022-12-09T19:30:53.996Z,99367.69
2022-12-09T19:33:21.864Z,99383.59
2022-12-09T19:35:52.961Z,99382.25
2022-12-09T19:38:30.897Z,99376.91
2022-12-09T19:41:05.290Z,99372.00
2022-12-09T19:43:40.213Z,99370.69
2022-12-09T19:46:14.587Z,99361.41
2022-12-09T19:48:46.989Z,99359.09
2022-12-09T19:51:20.768Z,99360.06
2022-12-09T19:53:49.877Z,99337.44
2022-12-09T19:56:20.969Z,99359.81
2022-12-09T19:58:52.471Z,99349.09
2022-12-09T20:01:41.409Z,99333.19
2022-12-09T20:04:48.097Z,99335.25
2022-12-09T20:07:11.554Z,99359.75
2022-12-09T20:09:41.272Z,99350.25
2022-12-09T20:12:10.446Z,99346.03
2022-12-09T20:14:39.558Z,99345.31
2022-12-09T20:17:28.765Z,99336.22
2022-12-09T20:20:02.196Z,99345.03
2022-12-09T20:22:32.953Z,99343.19
2022-12-09T20:25:04.240Z,99342.84
2022-12-09T20:27:34.634Z,99335.56
2022-12-09T20:30:02.564Z,99332.53
2022-12-09T20:32:34.693Z,99331.47
2022-12-09T20:35:25.460Z,99331.59
2022-12-09T20:37:54.096Z,99333.22
2022-12-09T20:40:22.600Z,99330.53
2022-12-09T20:42:52.603Z,99320.56
2022-12-09T20:45:20.773Z,99323.53
2022-12-09T20:47:53.434Z,99325.47
2022-12-09T20:50:22.481Z,99331.63
2022-12-09T20:52:55.374Z,99327.50
2022-12-09T20:55:28.949Z,99320.47
2022-12-09T20:57:57.760Z,99321.72
2022-12-09T21:00:28.604Z,99311.03
2022-12-09T21:02:56.689Z,99310.69
2022-12-09T21:05:28.134Z,99302.56
2022-12-09T21:07:58.013Z,99304.53
2022-12-09T21:10:26.060Z,99305.25
2022-12-09T21:12:57.386Z,99300.56
2022-12-09T21:15:28.703Z,99293.84
2022-12-09T21:18:00.859Z,99283.69
2022-12-09T21:20:32.647Z,99271.88
2022-12-09T21:23:32.779Z,99278.72
2022-12-09T21:25:58.132Z,99272.38
2022-12-09T21:28:26.309Z,99279.25
2022-12-09T21:30:54.377Z,99278.81
2022-12-09T21:33:23.579Z,99278.94
2022-12-09T21:35:56.490Z,99285.72
2022-12-09T21:38:29.333Z,99283.75
2022-12-09T21:41:17.512Z,99286.22
2022-12-09T21:43:46.798Z,99293.56
2022-12-09T21:46:22.795Z,99291.09
2022-12-09T21:48:54.244Z,99285.06
2022-12-09T21:51:24.052Z,99274.66
2022-12-09T21:53:53.301Z,99279.25
2022-12-09T21:56:25.857Z,99286.31
2022-12-09T21:59:16.956Z,99287.88
2022-12-09T22:01:45.622Z,99288.63
2022-12-09T22:04:18.758Z,99277.59
2022-12-09T22:06:49.726Z,99276.22
2022-12-09T22:09:21.080Z,99261.63
2022-12-09T22:12:08.809Z,99281.44
2022-12-09T22:14:37.170Z,99271.44
2022-12-09T22:17:04.702Z,99272.09
2022-12-09T22:19:32.302Z,99264.66
2022-12-09T22:22:02.351Z,99254.91
2022-12-09T22:24:33.689Z,99257.00
2022-12-09T22:27:01.280Z,99257.22
2022-12-09T22:29:29.549Z,99269.31
2022-12-09T22:31:57.021Z,99268.00
2022-12-09T22:34:24.591Z,99261.28
2022-12-09T22:36:55.905Z,99258.75
2022-12-09T22:39:23.883Z,99257.66
2022-12-09T22:41:52.201Z,99276.56
2022-12-09T22:44:20.796Z,99265.13
2022-12-09T22:46:49.063Z,99261.97
2022-12-09T22:49:17.730Z,99256.56
2022-12-09T22:51:47.102Z,99249.13
2022-12-09T22:54:15.674Z,99254.50
2022-12-09T22:56:44.934Z,99241.06
2022-12-09T22:59:14.889Z,99240.38
2022-12-09T23:01:46.010Z,99250.06
2022-12-09T23:04:18.842Z,99243.38
2022-12-09T23:06:46.361Z,99239.38
2022-12-09T23:09:19.148Z,99229.75
2022-12-09T23:11:49.699Z,99220.28
2022-12-09T23:14:18.008Z,99219.59
2022-12-09T23:16:45.823Z,99221.84
2022-12-09T23:19:14.278Z,99215.31
2022-12-09T23:21:43.243Z,99217.56
2022-12-09T23:24:15.080Z,99218.47
2022-12-09T23:26:44.670Z,99223.75
2022-12-09T23:29:16.660Z,99217.28
2022-12-09T23:31:47.245Z,99210.50
2022-12-09T23:34:16.025Z,99210.50
2022-12-09T23:36:44.990Z,99203.34
2022-12-09T23:39:16.303Z,99202.69
2022-12-09T23:41:47.805Z,99194.16
2022-12-09T23:44:18.212Z,99189.34
2022-12-09T23:46:46.589Z,99195.41
2022-12-09T23:49:14.661Z,99198.53
2022-12-09T23:51:45.777Z,99199.78
2022-12-09T23:54:15.290Z,99210.44
2022-12-09T23:56:48.111Z,99212.09
2022-12-09T23:59:15.856Z,99193.81
